2018/05/24 05:30 VVNB 240530Z 15006KT 110V210 9999 FEW023 34/25 Q1007 NOSIG
2018/05/24 05:30 VVDN 240530Z 09008KT 9999 FEW017 SCT060 35/25 Q1008 NOSIG
2018/05/24 05:30 VVTS 240530Z 05017G35KT 010V100 6000 -TSRA BKN010 SCT013CB 24/24 Q1007 WS ALL RWY BECMG TL0545 04015G28KT 5000 TSRA RMK CB OVER RWY
2018/05/24 05:30 VVPB 240530Z 05007KT 9999 FEW023 35/24 Q1009 NOSIG

Powered by MinhViet JSC.